createdAt,value
2018-11-10T00:00:01.354Z,5.57
2018-11-10T00:02:30.717Z,9.90
2018-11-10T00:04:59.262Z,8.17
2018-11-10T00:07:28.470Z,7.83
2018-11-10T00:09:56.946Z,8.33
2018-11-10T00:12:25.475Z,5.63
2018-11-10T00:14:54.802Z,7.63
2018-11-10T00:17:23.266Z,6.20
2018-11-10T00:19:52.387Z,9.47
2018-11-10T00:22:21.818Z,7.23
2018-11-10T00:24:50.311Z,8.93
2018-11-10T00:27:19.516Z,6.97
2018-11-10T00:29:48.178Z,6.67
2018-11-10T00:32:16.651Z,8.17
2018-11-10T00:34:45.247Z,8.60
2018-11-10T00:37:13.690Z,9.17
2018-11-10T00:39:42.185Z,8.00
2018-11-10T00:42:11.410Z,7.17
2018-11-10T00:44:39.968Z,7.73
2018-11-10T00:47:08.428Z,9.03
2018-11-10T00:49:36.929Z,10.03
2018-11-10T00:52:05.670Z,5.60
2018-11-10T00:54:34.132Z,4.70
2018-11-10T00:57:02.592Z,8.77
2018-11-10T00:59:31.476Z,6.27
2018-11-10T01:02:00.200Z,6.97
2018-11-10T01:04:28.681Z,6.33
2018-11-10T01:06:58.209Z,10.00
2018-11-10T01:09:27.053Z,5.77
2018-11-10T01:11:55.799Z,5.50
2018-11-10T01:14:24.289Z,9.47
2018-11-10T01:16:53.341Z,6.87
2018-11-10T01:19:21.821Z,6.80
2018-11-10T01:21:50.689Z,6.40
2018-11-10T01:24:19.151Z,8.80
2018-11-10T01:26:47.998Z,7.33
2018-11-10T01:29:16.985Z,6.37
2018-11-10T01:31:45.483Z,5.73
2018-11-10T01:34:14.140Z,8.63
2018-11-10T01:36:42.639Z,6.20
2018-11-10T01:39:11.104Z,8.27
2018-11-10T01:41:40.266Z,6.27
2018-11-10T01:44:09.453Z,5.53
2018-11-10T01:46:38.763Z,5.67
2018-11-10T01:49:07.343Z,5.43
2018-11-10T01:51:35.795Z,7.00
2018-11-10T01:54:05.044Z,7.13
2018-11-10T01:56:33.523Z,7.00
2018-11-10T01:59:02.069Z,7.57
2018-11-10T02:01:30.548Z,6.97
2018-11-10T02:03:59.297Z,7.20
2018-11-10T02:06:28.049Z,7.27
2018-11-10T02:08:56.540Z,7.90
2018-11-10T02:11:25.120Z,6.80
2018-11-10T02:13:53.772Z,6.07
2018-11-10T02:16:22.274Z,7.17
2018-11-10T02:18:50.768Z,7.30
2018-11-10T02:21:19.246Z,5.23
2018-11-10T02:23:47.748Z,5.40
2018-11-10T02:26:16.231Z,5.83
2018-11-10T02:28:44.722Z,8.60
2018-11-10T02:31:13.227Z,6.27
2018-11-10T02:33:41.709Z,6.90
2018-11-10T02:36:10.188Z,5.97
2018-11-10T02:38:38.750Z,6.10
2018-11-10T02:41:07.387Z,4.93
2018-11-10T02:43:35.856Z,8.57
2018-11-10T02:46:04.309Z,5.83
2018-11-10T02:48:32.758Z,6.90
2018-11-10T02:51:01.407Z,6.30
2018-11-10T02:53:29.885Z,6.40
2018-11-10T02:55:58.383Z,5.97
2018-11-10T02:58:26.869Z,7.27
2018-11-10T03:00:55.368Z,5.27
2018-11-10T03:03:23.945Z,9.10
2018-11-10T03:05:52.627Z,5.60
2018-11-10T03:08:21.095Z,5.67
2018-11-10T03:10:49.669Z,6.53
2018-11-10T03:13:18.103Z,8.60
2018-11-10T03:15:46.635Z,7.03
2018-11-10T03:18:15.119Z,7.13
2018-11-10T03:20:43.603Z,8.27
2018-11-10T03:23:12.071Z,6.53
2018-11-10T03:25:40.544Z,7.43
2018-11-10T03:28:09.012Z,7.83
2018-11-10T03:30:37.562Z,7.40
2018-11-10T03:33:06.369Z,7.13
2018-11-10T03:35:34.907Z,6.03
2018-11-10T03:38:03.600Z,8.77
2018-11-10T03:40:32.325Z,7.30
2018-11-10T03:43:00.835Z,10.00
2018-11-10T03:45:29.350Z,6.57
2018-11-10T03:47:57.834Z,8.87
2018-11-10T03:50:26.324Z,7.33
2018-11-10T03:52:54.823Z,6.40
2018-11-10T03:55:23.498Z,5.67
2018-11-10T03:57:51.950Z,5.40
2018-11-10T04:00:20.450Z,6.17
2018-11-10T04:02:48.930Z,6.40
2018-11-10T04:05:17.614Z,4.70
2018-11-10T04:07:46.498Z,4.97
2018-11-10T04:10:15.613Z,5.93
2018-11-10T04:12:44.094Z,6.50
2018-11-10T04:15:12.664Z,7.60
2018-11-10T04:17:41.133Z,4.67
2018-11-10T04:20:10.284Z,5.13
2018-11-10T04:22:39.055Z,7.90
2018-11-10T04:25:11.584Z,4.97
2018-11-10T04:27:40.085Z,4.60
2018-11-10T04:30:09.490Z,4.80
2018-11-10T04:32:38.074Z,5.30
2018-11-10T04:35:07.405Z,8.73
2018-11-10T04:37:36.082Z,4.70
2018-11-10T04:40:05.063Z,7.23
2018-11-10T04:42:33.553Z,4.57
2018-11-10T04:45:02.038Z,6.80
2018-11-10T04:47:30.520Z,5.00
2018-11-10T04:49:59.031Z,5.63
2018-11-10T04:52:28.327Z,5.80
2018-11-10T04:54:56.824Z,5.10
2018-11-10T04:57:25.307Z,8.07
2018-11-10T04:59:53.805Z,6.10
2018-11-10T05:02:22.333Z,6.10
2018-11-10T05:04:50.799Z,5.80
2018-11-10T05:07:19.285Z,6.13
2018-11-10T05:09:47.786Z,10.07
2018-11-10T05:12:16.359Z,8.30
2018-11-10T05:14:44.835Z,6.67
2018-11-10T05:17:13.323Z,5.33
2018-11-10T05:19:41.893Z,4.67
2018-11-10T05:22:10.497Z,6.40
2018-11-10T05:24:38.982Z,4.37
2018-11-10T05:27:07.451Z,4.60
2018-11-10T05:29:35.943Z,8.63
2018-11-10T05:32:04.420Z,15.50
2018-11-10T05:34:32.913Z,33.80
2018-11-10T05:37:01.571Z,12.23
2018-11-10T05:39:30.114Z,32.17
2018-11-10T05:41:58.940Z,6.27
2018-11-10T05:44:27.650Z,46.67
2018-11-10T05:46:56.324Z,43.00
2018-11-10T05:49:25.102Z,25.90
2018-11-10T05:51:53.899Z,11.50
2018-11-10T05:54:22.384Z,5.63
2018-11-10T05:56:50.868Z,5.47
2018-11-10T05:59:19.357Z,10.10
2018-11-10T06:01:47.815Z,8.00
2018-11-10T06:04:16.274Z,7.40
2018-11-10T06:06:44.775Z,8.60
2018-11-10T06:09:13.265Z,6.57
2018-11-10T06:11:41.775Z,11.07
2018-11-10T06:14:10.265Z,9.50
2018-11-10T06:16:38.757Z,7.10
2018-11-10T06:19:10.315Z,5.37
2018-11-10T06:21:38.917Z,5.83
2018-11-10T06:24:07.448Z,6.90
2018-11-10T06:26:36.007Z,7.47
2018-11-10T06:29:04.801Z,5.73
2018-11-10T06:31:33.601Z,10.20
2018-11-10T06:34:02.103Z,8.37
2018-11-10T06:36:30.649Z,6.00
2018-11-10T06:38:59.137Z,8.47
2018-11-10T06:41:27.702Z,11.90
2018-11-10T06:43:56.178Z,8.20
2018-11-10T06:46:24.943Z,6.47
2018-11-10T06:48:53.498Z,6.90
2018-11-10T06:51:21.985Z,6.70
2018-11-10T06:53:50.876Z,11.97
2018-11-10T06:56:19.372Z,15.23
2018-11-10T06:58:47.927Z,11.03
2018-11-10T07:01:16.472Z,9.63
2018-11-10T07:03:45.008Z,11.33
2018-11-10T07:06:14.215Z,12.33
2018-11-10T07:08:42.691Z,8.50
2018-11-10T07:11:11.157Z,7.63
2018-11-10T07:13:39.826Z,5.73
2018-11-10T07:16:08.350Z,5.33
2018-11-10T07:18:36.984Z,8.73
2018-11-10T07:21:05.620Z,8.33
2018-11-10T07:23:34.128Z,11.67
2018-11-10T07:26:03.214Z,12.67
2018-11-10T07:28:31.687Z,9.63
2018-11-10T07:31:00.222Z,7.07
2018-11-10T07:33:28.848Z,7.93
2018-11-10T07:35:57.339Z,12.70
2018-11-10T07:38:26.051Z,12.37
2018-11-10T07:40:55.613Z,15.07
2018-11-10T07:43:24.117Z,11.40
2018-11-10T07:45:52.587Z,14.70
2018-11-10T07:48:21.281Z,13.50
2018-11-10T07:50:49.845Z,9.50
2018-11-10T07:53:18.350Z,9.97
2018-11-10T07:55:46.875Z,8.00
2018-11-10T07:58:15.373Z,13.67
2018-11-10T08:00:43.851Z,8.67
2018-11-10T08:03:12.385Z,6.07
2018-11-10T08:05:40.920Z,6.30
2018-11-10T08:08:09.425Z,11.00
2018-11-10T08:10:38.009Z,6.80
2018-11-10T08:13:06.584Z,10.10
2018-11-10T08:15:35.105Z,7.00
2018-11-10T08:18:03.598Z,6.03
2018-11-10T08:20:32.156Z,4.67
2018-11-10T08:23:00.737Z,5.47
2018-11-10T08:25:29.329Z,10.37
2018-11-10T08:27:57.853Z,9.03
2018-11-10T08:30:26.385Z,12.53
2018-11-10T08:32:54.892Z,8.83
2018-11-10T08:35:23.559Z,19.50
2018-11-10T08:37:52.103Z,11.43
2018-11-10T08:40:20.612Z,11.20
2018-11-10T08:42:49.138Z,7.97
2018-11-10T08:45:17.719Z,6.30
2018-11-10T08:47:46.252Z,3.97
2018-11-10T08:50:16.047Z,6.63
2018-11-10T08:52:44.684Z,9.30
2018-11-10T08:55:13.844Z,4.90
2018-11-10T08:57:42.949Z,6.23
2018-11-10T09:00:12.154Z,5.40
2018-11-10T09:02:40.896Z,17.60
2018-11-10T09:05:10.823Z,6.57
2018-11-10T09:07:39.502Z,3.27
2018-11-10T09:10:09.758Z,3.97
2018-11-10T09:12:38.260Z,4.73
2018-11-10T09:15:08.851Z,7.57
2018-11-10T09:17:37.456Z,4.43
2018-11-10T09:20:08.377Z,5.03
2018-11-10T09:22:36.903Z,5.43
2018-11-10T09:25:07.778Z,10.90
2018-11-10T09:27:36.285Z,7.93
2018-11-10T09:30:05.130Z,7.77
2018-11-10T09:32:33.735Z,9.73
2018-11-10T09:35:02.255Z,11.40
2018-11-10T09:37:31.007Z,11.23
2018-11-10T09:39:59.567Z,6.33
2018-11-10T09:42:28.312Z,4.13
2018-11-10T09:44:56.683Z,6.77
2018-11-10T09:47:25.220Z,8.90
2018-11-10T09:49:53.736Z,5.47
2018-11-10T09:52:22.537Z,5.23
2018-11-10T09:54:51.099Z,6.03
2018-11-10T09:57:19.608Z,5.90
2018-11-10T09:59:48.318Z,7.40
2018-11-10T10:02:17.253Z,7.47
2018-11-10T10:04:45.761Z,5.10
2018-11-10T10:07:14.286Z,7.67
2018-11-10T10:09:42.863Z,3.70
2018-11-10T10:12:11.454Z,5.43
2018-11-10T10:14:39.983Z,4.77
2018-11-10T10:17:08.579Z,6.10
2018-11-10T10:19:37.200Z,3.37
2018-11-10T10:22:05.949Z,5.30
2018-11-10T10:24:35.306Z,4.67
2018-11-10T10:27:04.044Z,5.80
2018-11-10T10:29:32.582Z,4.73
2018-11-10T10:32:01.382Z,5.03
2018-11-10T10:34:30.416Z,5.07
2018-11-10T10:36:59.754Z,4.57
2018-11-10T10:39:28.330Z,4.77
2018-11-10T10:41:57.026Z,4.27
2018-11-10T10:44:25.775Z,3.30
2018-11-10T10:46:54.436Z,3.93
2018-11-10T10:49:26.735Z,3.93
2018-11-10T10:51:55.892Z,3.40
2018-11-10T10:54:35.245Z,6.77
2018-11-10T10:57:03.913Z,4.57
2018-11-10T10:59:32.907Z,5.03
2018-11-10T11:03:04.298Z,4.40
2018-11-10T11:05:39.605Z,3.70
2018-11-10T11:08:10.537Z,4.60
2018-11-10T11:10:40.720Z,2.90
2018-11-10T11:13:10.581Z,4.63
2018-11-10T11:15:41.047Z,3.37
2018-11-10T11:18:09.661Z,3.50
2018-11-10T11:20:38.303Z,3.43
2018-11-10T11:23:06.808Z,4.53
2018-11-10T11:25:35.535Z,4.17
2018-11-10T11:28:04.082Z,4.80
2018-11-10T11:30:32.608Z,5.47
2018-11-10T11:33:01.181Z,5.43
2018-11-10T11:35:30.098Z,6.43
2018-11-10T11:37:58.645Z,5.67
2018-11-10T11:40:27.199Z,5.23
2018-11-10T11:42:55.710Z,6.43
2018-11-10T11:45:24.662Z,5.97
2018-11-10T11:47:54.295Z,5.57
2018-11-10T11:50:23.698Z,5.60
2018-11-10T11:52:52.706Z,5.20
2018-11-10T11:55:21.486Z,4.53
2018-11-10T11:57:50.150Z,4.20
2018-11-10T12:00:18.995Z,4.07
2018-11-10T12:02:48.142Z,4.17
2018-11-10T12:05:17.625Z,4.30
2018-11-10T12:07:46.884Z,4.23
2018-11-10T12:10:16.246Z,3.70
2018-11-10T12:12:44.834Z,4.60
2018-11-10T12:15:14.534Z,3.57
2018-11-10T12:17:42.992Z,3.97
2018-11-10T12:20:13.056Z,3.40
2018-11-10T12:22:42.172Z,3.70
2018-11-10T12:25:12.437Z,4.63
2018-11-10T12:27:41.861Z,4.10
2018-11-10T12:30:10.963Z,3.93
2018-11-10T12:32:40.168Z,3.67
2018-11-10T12:35:09.597Z,4.37
2018-11-10T12:37:39.012Z,3.90
2018-11-10T12:40:33.007Z,3.70
2018-11-10T12:43:02.488Z,5.57
2018-11-10T12:45:32.533Z,8.73
2018-11-10T12:50:58.492Z,9.00
2018-11-10T12:53:27.580Z,6.37
2018-11-10T12:55:57.182Z,6.00
2018-11-10T12:58:27.207Z,4.43
2018-11-10T13:00:58.659Z,4.93
2018-11-10T13:03:28.923Z,6.90
2018-11-10T13:05:57.513Z,5.73
2018-11-10T13:08:26.069Z,6.47
2018-11-10T13:10:54.643Z,8.13
2018-11-10T13:13:23.173Z,9.63
2018-11-10T13:15:52.215Z,10.30
2018-11-10T13:18:20.911Z,7.47
2018-11-10T13:20:49.507Z,4.07
2018-11-10T13:23:17.969Z,6.13
2018-11-10T13:25:46.549Z,5.50
2018-11-10T13:28:15.061Z,7.53
2018-11-10T13:30:43.635Z,7.13
2018-11-10T13:33:13.540Z,5.63
2018-11-10T13:35:42.267Z,6.57
2018-11-10T13:38:10.886Z,8.73
2018-11-10T13:40:39.428Z,5.10
2018-11-10T13:43:08.214Z,8.93
2018-11-10T13:45:36.749Z,6.77
2018-11-10T13:48:05.257Z,5.73
2018-11-10T13:50:33.809Z,4.57
2018-11-10T13:53:02.988Z,5.47
2018-11-10T13:55:31.084Z,3.77
2018-11-10T13:57:59.578Z,3.67
2018-11-10T14:00:28.350Z,6.20
2018-11-10T14:02:56.978Z,4.20
2018-11-10T14:05:25.655Z,6.13
2018-11-10T14:07:55.580Z,6.80
2018-11-10T14:10:24.173Z,7.70
2018-11-10T14:12:52.958Z,12.20
2018-11-10T14:15:21.624Z,9.00
2018-11-10T14:17:50.174Z,5.03
2018-11-10T14:20:18.866Z,5.97
2018-11-10T14:22:49.908Z,8.73
2018-11-10T14:25:18.548Z,5.50
2018-11-10T14:27:53.665Z,5.10
2018-11-10T14:30:23.933Z,6.67
2018-11-10T14:32:52.484Z,5.67
2018-11-10T14:35:21.856Z,4.80
2018-11-10T14:37:50.393Z,4.90
2018-11-10T14:40:19.241Z,3.40
2018-11-10T14:42:47.757Z,4.67
2018-11-10T14:45:17.652Z,3.23
2018-11-10T14:47:46.489Z,2.87
2018-11-10T14:50:15.863Z,4.67
2018-11-10T14:52:44.945Z,4.07
2018-11-10T14:55:15.307Z,3.50
2018-11-10T14:57:44.210Z,4.50
2018-11-10T15:00:19.472Z,4.50
2018-11-10T15:02:48.152Z,4.67
2018-11-10T15:05:18.226Z,4.47
2018-11-10T15:07:47.856Z,3.30
2018-11-10T15:10:17.353Z,4.70
2018-11-10T15:12:46.147Z,3.50
2018-11-10T15:15:15.906Z,3.03
2018-11-10T15:17:44.958Z,5.67
2018-11-10T15:20:15.594Z,3.10
2018-11-10T15:22:44.324Z,4.03
2018-11-10T15:25:15.495Z,14.23
2018-11-10T15:27:44.231Z,13.30
2018-11-10T15:30:20.739Z,11.37
2018-11-10T15:32:49.860Z,12.60
2018-11-10T15:35:19.864Z,17.07
2018-11-10T15:37:49.512Z,31.20
2018-11-10T15:40:18.788Z,9.80
2018-11-10T15:42:47.301Z,4.87
2018-11-10T15:45:16.830Z,4.73
2018-11-10T15:47:45.692Z,5.03
2018-11-10T15:50:15.439Z,5.57
2018-11-10T15:52:43.868Z,3.30
2018-11-10T15:55:12.960Z,5.60
2018-11-10T15:57:41.855Z,4.20
2018-11-10T16:00:13.007Z,4.03
2018-11-10T16:02:42.088Z,3.40
2018-11-10T16:05:11.602Z,4.37
2018-11-10T16:07:40.448Z,4.03
2018-11-10T16:10:09.400Z,4.00
2018-11-10T16:12:38.216Z,4.60
2018-11-10T16:15:08.911Z,3.90
2018-11-10T16:17:37.895Z,4.43
2018-11-10T16:20:08.989Z,4.07
2018-11-10T16:22:37.536Z,4.80
2018-11-10T16:25:07.435Z,4.77
2018-11-10T16:27:36.149Z,6.47
2018-11-10T16:30:05.559Z,4.53
2018-11-10T16:32:34.059Z,6.37
2018-11-10T16:35:02.591Z,4.27
2018-11-10T16:37:31.216Z,5.87
2018-11-10T16:39:59.754Z,5.90
2018-11-10T16:42:28.314Z,3.87
2018-11-10T16:44:57.040Z,3.70
2018-11-10T16:47:25.537Z,4.30
2018-11-10T16:49:54.056Z,3.77
2018-11-10T16:52:22.735Z,3.50
2018-11-10T16:54:52.019Z,8.13
2018-11-10T16:57:20.830Z,4.20
2018-11-10T16:59:49.843Z,5.27
2018-11-10T17:02:18.346Z,4.17
2018-11-10T17:04:46.895Z,6.33
2018-11-10T17:07:15.514Z,4.63
2018-11-10T17:09:44.302Z,4.40
2018-11-10T17:12:12.918Z,4.63
2018-11-10T17:14:41.792Z,6.43
2018-11-10T17:17:10.887Z,5.63
2018-11-10T17:19:39.390Z,4.10
2018-11-10T17:22:08.192Z,4.60
2018-11-10T17:24:36.680Z,4.63
2018-11-10T17:27:05.429Z,6.23
2018-11-10T17:29:34.038Z,6.37
2018-11-10T17:32:03.205Z,5.10
2018-11-10T17:34:31.709Z,5.67
2018-11-10T17:37:01.100Z,6.27
2018-11-10T17:39:29.705Z,4.80
2018-11-10T17:41:58.281Z,6.33
2018-11-10T17:44:27.047Z,6.40
2018-11-10T17:46:55.717Z,4.53
2018-11-10T17:49:24.249Z,4.97
2018-11-10T17:51:53.918Z,5.80
2018-11-10T17:54:23.213Z,5.30
2018-11-10T17:56:52.416Z,4.80
2018-11-10T17:59:21.109Z,4.17
2018-11-10T18:01:49.828Z,5.53
2018-11-10T18:04:18.295Z,4.90
2018-11-10T18:06:47.011Z,5.30
2018-11-10T18:09:15.803Z,5.40
2018-11-10T18:11:44.344Z,4.40
2018-11-10T18:14:13.367Z,5.13
2018-11-10T18:16:41.930Z,5.47
2018-11-10T18:19:11.183Z,5.97
2018-11-10T18:21:39.576Z,6.33
2018-11-10T18:24:08.091Z,5.03
2018-11-10T18:26:37.157Z,6.87
2018-11-10T18:29:06.482Z,7.37
2018-11-10T18:31:35.586Z,8.53
2018-11-10T18:34:04.588Z,13.53
2018-11-10T18:36:33.329Z,7.40
2018-11-10T18:39:02.017Z,10.10
2018-11-10T18:41:31.066Z,11.40
2018-11-10T18:43:59.814Z,9.73
2018-11-10T18:46:28.403Z,9.47
2018-11-10T18:48:57.161Z,10.33
2018-11-10T18:51:25.756Z,11.57
2018-11-10T18:53:55.125Z,19.07
2018-11-10T18:56:24.452Z,11.17
2018-11-10T18:58:53.067Z,7.70
2018-11-10T19:01:22.096Z,7.43
2018-11-10T19:03:50.705Z,8.80
2018-11-10T19:06:19.493Z,9.23
2018-11-10T19:08:49.020Z,9.57
2018-11-10T19:11:17.933Z,15.07
2018-11-10T19:13:46.622Z,18.87
2018-11-10T19:16:15.491Z,15.23
2018-11-10T19:18:44.195Z,16.07
2018-11-10T19:21:12.755Z,17.30
2018-11-10T19:23:41.465Z,11.10
2018-11-10T19:26:10.267Z,11.47
2018-11-10T19:28:41.975Z,10.40
2018-11-10T19:31:31.820Z,10.43
2018-11-10T19:34:00.493Z,9.10
2018-11-10T19:36:29.379Z,9.37
2018-11-10T19:38:58.121Z,8.87
2018-11-10T19:41:26.952Z,11.03
2018-11-10T19:43:55.884Z,16.20
2018-11-10T19:46:24.735Z,12.63
2018-11-10T19:48:53.602Z,15.07
2018-11-10T19:51:22.347Z,11.60
2018-11-10T19:53:50.779Z,10.43
2018-11-10T19:56:19.373Z,8.77
2018-11-10T19:58:48.184Z,9.20
2018-11-10T20:01:17.124Z,9.97
2018-11-10T20:03:45.786Z,8.70
2018-11-10T20:06:14.308Z,9.10
2018-11-10T20:08:42.866Z,9.17
2018-11-10T20:11:11.453Z,11.97
2018-11-10T20:13:40.122Z,12.70
2018-11-10T20:16:08.660Z,14.37
2018-11-10T20:18:37.348Z,26.93
2018-11-10T20:21:06.010Z,12.63
2018-11-10T20:23:34.727Z,9.90
2018-11-10T20:26:03.492Z,8.43
2018-11-10T20:28:32.053Z,10.77
2018-11-10T20:31:00.597Z,8.20
2018-11-10T20:33:29.111Z,10.07
2018-11-10T20:35:57.660Z,11.87
2018-11-10T20:38:26.253Z,14.67
2018-11-10T20:40:55.372Z,9.20
2018-11-10T20:43:23.957Z,8.73
2018-11-10T20:45:52.748Z,9.43
2018-11-10T20:48:21.281Z,10.80
2018-11-10T20:50:49.991Z,10.73
2018-11-10T20:53:18.577Z,10.40
2018-11-10T20:55:47.065Z,10.17
2018-11-10T20:58:15.995Z,12.73
2018-11-10T21:00:44.817Z,11.17
2018-11-10T21:03:13.628Z,15.43
2018-11-10T21:05:42.256Z,17.33
2018-11-10T21:08:10.777Z,20.87
2018-11-10T21:10:39.352Z,18.20
2018-11-10T21:13:07.958Z,17.10
2018-11-10T21:15:36.462Z,23.53
2018-11-10T21:18:05.089Z,36.17
2018-11-10T21:20:33.678Z,18.10
2018-11-10T21:23:02.260Z,11.67
2018-11-10T21:25:30.780Z,10.53
2018-11-10T21:27:59.299Z,15.37
2018-11-10T21:30:27.814Z,15.30
2018-11-10T21:32:56.680Z,17.93
2018-11-10T21:35:25.250Z,17.63
2018-11-10T21:37:54.039Z,13.27
2018-11-10T21:40:22.566Z,10.17
2018-11-10T21:42:54.730Z,15.53
2018-11-10T21:45:23.370Z,11.40
2018-11-10T21:47:51.990Z,14.80
2018-11-10T21:56:39.905Z,10.47
2018-11-10T21:59:08.741Z,9.30
2018-11-10T22:01:42.776Z,9.93
2018-11-10T22:04:33.359Z,11.87
2018-11-10T22:07:01.888Z,11.70
2018-11-10T22:09:33.546Z,11.13
2018-11-10T22:12:05.829Z,13.97
2018-11-10T22:14:40.265Z,15.87
2018-11-10T22:17:13.486Z,7.80
2018-11-10T22:19:43.720Z,11.47
2018-11-10T22:22:16.239Z,9.00
2018-11-10T22:24:52.619Z,11.07
2018-11-10T22:27:21.542Z,11.73
2018-11-10T22:29:50.855Z,10.90
2018-11-10T22:32:21.090Z,11.13
2018-11-10T22:34:49.751Z,10.00
2018-11-10T22:37:19.127Z,8.13
2018-11-10T22:39:49.206Z,10.07
2018-11-10T22:42:18.369Z,10.00
2018-11-10T22:44:47.453Z,11.93
2018-11-10T22:47:16.158Z,11.87
2018-11-10T22:49:45.611Z,7.43
2018-11-10T22:52:14.693Z,10.63
2018-11-10T22:54:43.472Z,12.00
2018-11-10T22:57:12.274Z,9.47
2018-11-10T22:59:41.012Z,7.33
2018-11-10T23:02:09.884Z,11.27
2018-11-10T23:04:38.620Z,9.37
2018-11-10T23:07:07.842Z,9.47
2018-11-10T23:09:37.027Z,12.63
2018-11-10T23:12:06.146Z,9.17
2018-11-10T23:14:34.797Z,7.03
2018-11-10T23:17:04.095Z,8.50
2018-11-10T23:19:33.072Z,9.17
2018-11-10T23:22:02.076Z,13.77
2018-11-10T23:24:30.806Z,13.43
2018-11-10T23:26:59.504Z,10.93
2018-11-10T23:29:28.205Z,6.97
2018-11-10T23:31:56.864Z,13.03
2018-11-10T23:34:25.823Z,13.20
2018-11-10T23:36:54.322Z,12.80
2018-11-10T23:39:23.228Z,13.27
2018-11-10T23:41:52.122Z,12.40
2018-11-10T23:44:20.668Z,12.27
2018-11-10T23:46:49.136Z,14.77
2018-11-10T23:49:17.629Z,11.33
2018-11-10T23:51:46.099Z,12.20
2018-11-10T23:54:14.675Z,15.77
2018-11-10T23:56:43.124Z,12.30
2018-11-10T23:59:11.585Z,13.40
